Flight Track Log - Related Links

Times and Time Zones

All times are in EDT time to prevent confusion due to time zone crossing. See the N796PG flight status page for this flight to view local times or setup timezone preferences in your user account.

Time Position Orientation Groundspeed Altitude Reporting Facility
EDT Latitude Longitude Course Direction KTS MPH feet Rate Location/Type
Fri 02:22:37 PM 33.9000 -84.2667 40° Northeast 122 140 2,300  Level Atlanta TRACON
Fri 02:23:31 PM 33.9333 -84.2333 40° Northeast 121 139 3,100 842 Climbing Atlanta TRACON
Fri 02:24:31 PM 33.9500 -84.2167 40° Northeast 133 153 3,900 700 Climbing Atlanta TRACON
Fri 02:25:31 PM 33.9833 -84.1833 40° Northeast 139 160 4,500 550 Climbing Atlanta TRACON
Fri 02:26:31 PM 34.0000 -84.1333 68° East 140 161 5,000 250 Climbing Atlanta TRACON
Fri 02:27:31 PM 34.0333 -84.1000 40° Northeast 163 188 5,000  Level Atlanta TRACON
Fri 02:28:37 PM 34.0667 -84.0500 51° Northeast 166 191 5,000  Level Atlanta TRACON
Fri 02:29:37 PM 34.0833 -84.0167 59° Northeast 167 192 5,000  Level Atlanta TRACON
Fri 02:31:43 PM 34.1553 -83.9233 47° Northeast 182 209 5,000  Level Atlanta Center
Fri 02:32:43 PM 34.1825 -83.8806 52° Northeast 168 193 5,000  Level Atlanta Center
Fri 02:33:43 PM 34.2136 -83.8378 49° Northeast 163 188 5,000  Level Atlanta Center
Fri 02:34:43 PM 34.2406 -83.8025 47° Northeast 158 182 5,000  Level Atlanta Center
Fri 02:35:43 PM 34.2697 -83.7622 49° Northeast 158 182 5,000  Level Atlanta Center
Fri 02:36:43 PM 34.2969 -83.7169 54° Northeast 158 182 5,000  Level Atlanta Center
Fri 02:37:43 PM 34.3281 -83.6767 47° Northeast 158 182 5,000  Level Atlanta Center
Fri 02:38:43 PM 34.3572 -83.6336 51° Northeast 163 188 5,000  Level Atlanta Center
Fri 02:39:43 PM 34.3861 -83.5933 49° Northeast 158 182 5,000  Level Atlanta Center
Fri 02:40:43 PM 34.4153 -83.5478 52° Northeast 158 182 5,000  Level Atlanta Center
Fri 02:41:43 PM 34.4486 -83.5147 39° Northeast 158 182 5,000  Level Atlanta Center
Fri 02:42:43 PM 34.4839 -83.4794 39° Northeast 152 175 5,000  Level Atlanta Center
Fri 02:43:43 PM 34.5108 -83.4439 47° Northeast 152 175 5,000  Level Atlanta Center
Fri 02:44:43 PM 34.5419 -83.4008 49° Northeast 152 175 5,000  Level Atlanta Center
Fri 02:45:43 PM 34.5792 -83.3728 32° Northeast 152 175 5,000  Level Atlanta Center
Fri 02:46:43 PM 34.6167 -83.3497 27° Northeast 147 169 5,000  Level Atlanta Center
Fri 02:47:43 PM 34.6519 -83.3242 31° Northeast 147 169 5,000  Level Atlanta Center
Fri 02:48:43 PM 34.6917 -83.3011 26° Northeast 147 169 5,000  Level Atlanta Center
Fri 02:49:43 PM 34.7311 -83.2831 21° North 147 169 5,000  Level Atlanta Center
Fri 02:50:43 PM 34.7558 -83.2475 50° Northeast 147 169 5,000  Level Atlanta Center
Fri 02:51:43 PM 34.7808 -83.2372 19° North 121 139 5,000 -300 Level Atlanta Center
Fri 02:52:43 PM 34.7581 -83.2728 232° Southwest 38 44 4,400 -650 Descending Atlanta Center
Fri 02:53:43 PM 34.7247 -83.2781 187° South 76 87 3,700 -450 Descending Atlanta Center
Fri 02:54:43 PM 34.7042 -83.2958 215° Southwest 86 99 3,500 650 Descending Atlanta Center
Fri 02:55:43 PM 34.6833 -83.3086 207° Southwest 86 99 5,000 750 Climbing Atlanta Center
Fri 02:56:43 PM 34.6625 -83.3217 207° Southwest 86 99 5,000  Level Atlanta Center
Fri 02:57:43 PM 34.6583 -83.3242 206° Southwest 86 99 5,000 -567 Level Atlanta Center
Fri 02:59:43 PM 34.5767 -83.2667 150° Southeast 174 200 3,300 -333 Descending Atlanta Center
Fri 03:00:43 PM 34.6036 -83.2414 38° Northeast 120 138 4,000 800 Climbing Atlanta Center
Fri 03:01:43 PM 34.6142 -83.2842 287° West 60 69 4,900 550 Climbing Atlanta Center
Fri 03:02:43 PM 34.5703 -83.2844 180° South 71 82 5,100 100 Climbing Atlanta Center
Fri 03:03:43 PM 34.5286 -83.2850 181° South 114 131 5,100 -50 Level Atlanta Center
Fri 03:04:43 PM 34.4808 -83.2928 188° South 147 169 5,000 -50 Descending Atlanta Center
Fri 03:05:43 PM 34.4328 -83.2883 176° South 167 192 5,000 -50 Level Atlanta Center
Fri 03:06:43 PM 34.3889 -83.2986 191° South 172 198 4,900  Descending Atlanta Center
Fri 03:07:43 PM 34.3431 -83.3067 188° South 172 198 5,000 50 Climbing Atlanta Center
Fri 03:08:43 PM 34.2992 -83.3119 186° South 165 190 5,000 -50 Level Atlanta Center
Fri 03:09:43 PM 34.2514 -83.3150 183° South 165 190 4,900  Descending Atlanta Center
Fri 03:11:58 PM 34.1333 -83.3167 181° South 167 192 5,000  Climbing Atlanta TRACON
Fri 03:12:58 PM 34.1000 -83.3167 180° South 172 198 4,900 -53 Descending Atlanta TRACON
Fri 03:13:52 PM 34.0500 -83.3167 180° South 169 194 4,900 50 Level Atlanta TRACON
Fri 03:14:58 PM 34.0000 -83.3167 180° South 170 196 5,000 48 Climbing Atlanta TRACON
Fri 03:15:58 PM 33.9500 -83.3333 195° South 175 201 5,000  Level Atlanta TRACON
Fri 03:16:58 PM 33.9500 -83.3833 270° West 172 198 5,000  Level Atlanta TRACON
Fri 03:17:58 PM 33.9333 -83.4500 253° West 173 199 5,000  Level Atlanta TRACON
Fri 03:18:58 PM 33.9333 -83.5000 270° West 171 197 5,000  Level Atlanta TRACON
Fri 03:19:58 PM 33.9333 -83.5667 270° West 171 197 5,000  Level Atlanta TRACON
Fri 03:20:52 PM 33.9333 -83.6167 270° West 167 192 5,000  Level Atlanta TRACON
Fri 03:21:52 PM 33.9167 -83.6667 248° West 167 192 5,000  Level Atlanta TRACON
Fri 03:22:52 PM 33.9167 -83.7167 270° West 164 189 5,000  Level Atlanta TRACON
Fri 03:23:52 PM 33.9167 -83.7667 270° West 161 185 5,000  Level Atlanta TRACON
Fri 03:24:52 PM 33.9167 -83.8333 270° West 162 186 5,000 -50 Level Atlanta TRACON
Fri 03:25:52 PM 33.9000 -83.8833 248° West 167 192 4,900 -350 Descending Atlanta TRACON
Fri 03:26:52 PM 33.9000 -83.9333 270° West 178 205 4,300 -450 Descending Atlanta TRACON
Fri 03:27:52 PM 33.9000 -84.0000 270° West 168 193 4,000 -350 Descending Atlanta TRACON
Fri 03:28:52 PM 33.9000 -84.0500 270° West 208 239 3,600 -450 Descending Atlanta TRACON
Fri 03:29:52 PM 33.8833 -84.1000 248° West 171 197 3,100 -300 Descending Atlanta TRACON
Fri 03:30:52 PM 33.8667 -84.1500 248° West 161 185 3,000 -50 Descending Atlanta TRACON
Fri 03:31:52 PM 33.8500 -84.2000 248° West 154 177 3,000 -150 Level Atlanta TRACON
Fri 03:32:52 PM 33.8500 -84.2500 270° West 149 171 2,700 -550 Descending Atlanta TRACON
Fri 03:33:52 PM 33.8500 -84.2833 270° West 99 114 1,900 -800 Descending Atlanta TRACON
Fri 03:35:00 PM 33.8667 -84.3000 239° Southwest  Level FlightAware
Fri 03:42:00 PM 33.8756 -84.3020 239° Southwest  Level Estimated
Fri 03:43:00 PM 33.8756 -84.3020 239° Southwest  Level Estimated
Fri 03:44:00 PM 33.8756 -84.3020 239° Southwest  Level Estimated
Fri 03:45:00 PM 33.8756 -84.3020 239° Southwest  Level Estimated
Fri 03:46:00 PM 33.8756 -84.3020 239° Southwest  Level Estimated
Fri 03:47:00 PM 33.8756 -84.3020 239° Southwest  Level Estimated
Fri 03:48:00 PM 33.8756 -84.3020 239° Southwest  Level Estimated
Fri 03:49:00 PM 33.8756 -84.3020 239° Southwest  Level Estimated
Fri 03:50:00 PM 33.8756 -84.3020 239° Southwest  Level Estimated
Fri 03:51:00 PM 33.8756 -84.3020 239° Southwest  Level Estimated

Login

Don't have an account? Register now (free) for customized features, flight alerts, and more!